Results:

Show Individual Results Yes
Show Team Results Yes
Show Relay Team Results Yes
Selected gender combined
Show name as link Yes
 

Jogalong

Jogalong (6k)
Sunday, 3rd May 2009
 
 
Place Name Sex Age CAT Grp Grp Act Time Net Pace Elig Points New Grp
1. Emily Whitten F 39 W35 24 1 32:13 32:13 5:22 G 34
2. Oneeka Robb F 32 30 8 34:50 27:50 4:38 G 43
3. 01st Unknown Female F 24 1 35:05 35:05 5:50 F 29
4. Josephine Farrugia F 54 W50 25 2 39:19 38:19 6:23 G 25
5. Kerri Shepherd-Ashby F 32 30 1 43:06 43:06 7:11 F 30
6. Honor Chan F 42 W40 23 1 43:16 43:16 7:12 G 23
7. Kara Smith F 1 15 43:57 29:57 4:59 F 39
8. Denise Cardew-Hall F 47 W45 23 1 44:45 44:45 7:27 G 23
9. Charlotte Beaglehole F 34 1 14 44:51 31:51 5:18 F 35
10. Kay Austin F 56 W55 20 1 45:08 45:08 7:31 G 19
11. Dianne McDean F 42 W40 23 1 45:19 45:19 7:33 G 23
12. Amanda Kabaila F 1 1 46:01 46:01 7:40 F 18
13. Thao Walker F 32 30 10 46:13 37:13 6:12 G 30
14. Kim Hocking F 41 W40 23 4 48:16 45:16 7:32 F 23
15. Jen Dalton F 38 W35 23 15 48:40 34:40 5:46 F 29
16. Christine Norek F 58 W55 1 13 49:01 37:01 6:10 F 27
17. Belinda Lowrey F 29 1 14 49:42 36:42 6:07 F 27
18. Kay Walker F 57 W55 24 10 50:13 41:13 6:52 G 24
19. Nerida Dyne F 35 W35 24 14 50:39 37:39 6:16 G 26
20. Debbie Dunchue F 48 W45 9 9 51:04 43:04 7:10 1 21
21. Catherine Watson F 37 W35 1 14 51:56 38:56 6:29 F 25
22. Veronica Ross F 56 W55 17 1 52:00 52:00 8:40 G 17
23. Josephine Kulesz F 58 W55 14 1 52:00 52:00 8:40 G 14
24. Jacinda Fehre F 32 21 21 52:01 32:01 5:20 F 25
25. Erin McNeil F 26 7 9 52:03 44:03 7:20 F 20
26. Sharon Bickers F 55 W55 28 16 52:12 37:12 6:12 G 28
27. Karen Scott F 36 W35 28 16 52:12 37:12 6:12 G 28
28. Josie Baynes F 1 12 53:23 42:23 7:03 F 21
29. Vicki Kinnane F 42 W40 28 17 53:31 37:31 6:15 G 28
30. Tammy Malone F 31 28 20 53:31 34:31 5:45 F 30
31. Sarah Rajic F 29 34 4 53:34 50:34 8:25 F 34
32. Dawn Shield F 57 W55 28 17 53:39 37:39 6:16 G 28
33. Myra Young F 51 W50 5 1 54:05 54:05 9:00 F 10
34. Diana Melham F 42 W40 22 9 54:10 46:10 7:41 G 22
35. Alyce Gainsford F 16 U18 1 24 54:11 31:11 5:11 F 36
36. Lucy Boom F 42 W40 1 14 54:34 41:34 6:55 F 22
37. Suzie Gye F 33 30 24 54:35 31:35 5:15 F 36
38. Rachel Yates F 0 30 14 54:55 41:55 6:59 G 30
39. Tina-Marie Dan F 41 W40 1 19 55:04 37:04 6:10 F 27
40. Jennifer Morris F 49 W45 15 15 55:05 41:05 6:50 F 18
41. Emma Giessmann F 12 U14 1 22 55:21 34:21 5:43 G 30
42. Karen Paton F 50 W50 15 10 55:27 46:27 7:44 F 17
43. Louise Sharp F 26 1 30 56:03 28:03 4:40 F 43
44. Sheridan Johnson F 25 1 14 56:20 43:20 7:13 F 20
45. Katherine Sheppard F 38 W35 36 25 56:52 32:52 5:28 G 36
46. Frances Heikkonen F 58 W55 15 2 56:56 55:56 9:19 G 14
47. Rachael Netting F 31 15 19 57:05 39:05 6:30 G 25
48. Anne Baynes F 50 W50 22 12 57:48 46:48 7:48 F 22
49. Belinda McRae F 23 1 19 58:07 40:07 6:41 F 24
50. Kim Scott F 42 W40 1 14 58:22 45:22 7:33 F 18
51. Annette Hrast F 55 W55 17 17 58:30 42:30 7:05 1 18
52. Carolyn Droste F 36 W35 23 23 58:38 36:38 6:06 1 24
53. Katy Hallam F 24 15 15 58:49 44:49 7:28 1 16
54. Kate Greeney F 36 W35 20 15 59:10 45:10 7:31 G 20
55. Kate Porter-Smith F 29 25 26 59:11 34:11 5:41 G 30
56. Wendy Read F 35 W35 26 26 59:17 34:17 5:42 Y 100 30
57. Anne Parrett F 43 W40 1 14 59:20 46:20 7:43 F 17
58. Barbara Williams F 63 W60 39 25 59:36 35:36 5:56 F
59. Alison Schmidtchen F 44 W40 19 10 59:38 50:38 8:26 G
60. Kate Kinch F 29 15 12 59:53 48:53 8:08 F
61. Margaret Latham F 71 W70 7 7 59:56 53:56 8:59 Y 99 9
62. Megan Haylock F 44 W40 36 7 59:57 53:57 8:59 G
63. Betsy Anderson-Smith F 17 U18 52 45 1:00:08 24:38 4:06 G
64. Jennie Clarke F 46 W45 1 22 1:00:12 39:12 6:32 F 24
65. Vivienne Walker F 40 W40 26 26 1:00:15 35:15 5:52 Y 98 29
66. Jenny Hefford F 57 W55 36 12 1:00:26 49:26 8:14 G
67. Julie Rey F 36 W35 22 22 1:00:27 39:27 6:34 Y 97 23
68. Sylvia Nichols F 52 W50 1 36 1:00:35 29:35 4:55 F 38
69. Cathy Cochrane F 27 18 18 1:00:36 43:36 7:16 F 19
70. Kathleen Bleakley F 37 W35 40 33 1:00:42 31:12 5:12 G
71. Aisha Strutt F 9 U10 1 29 1:01:02 33:32 5:35 F 31
72. Laura Baynes F 13 U14 44 44 1:01:08 26:08 4:21 1 45
73. Nicole Nicholson F 30 33 33 1:01:09 31:39 5:16 Y 96 34
74. Lorna Burdon F 72 W70 15 15 1:01:11 47:11 7:51 Y 95 16
75. Andrea Comer F 16 U18 46 39 1:01:16 28:46 4:47 F
76. Madeleine Kaye F 40 W40 24 24 1:01:23 38:23 6:23 Y 94 25
77. Melissa Cabban F 33 1 15 1:01:24 47:24 7:54 F 17
78. Lorraine Stevens F 56 W55 41 23 1:01:26 39:26 6:34 G 40
79. Kellie Hedditch F 39 W35 30 30 1:01:27 33:27 5:34 Y 93 31
80. Eleanor Hensley F 64 W60 15 15 1:01:28 47:28 7:54 Y 92 16
81. Sally Eldridge F 44 W40 1 16 1:01:29 46:29 7:44 F 17
82. Norma Lindemann F 67 W65 29 29 1:01:29 33:59 5:39 Y 91 30
83. Joanne Saint F 39 W35 39 39 1:01:32 29:02 4:50 1 40
84. Alison Hale F 38 W35 1 29 1:01:35 34:05 5:40 G 31
85. 02nd Unknown Female F 24 1 1:01:36 1:01:36 10:16 F
86. Monique Sheehan F 39 W35 1 28 1:01:37 34:37 5:46 G 30
87. Jane Smith F 51 W50 28 28 1:01:43 34:43 5:47 Y 90 29
88. Jennifer Bright F 1 38 1:01:44 29:44 4:57 F 39
89. Gwen Gleeson F 80 W80 14 14 1:01:53 48:53 8:08 F
90. Lorraine Jansen F 57 W55 30 30 1:02:00 34:00 5:40 Y 89 31
91. Margeurite Bateman F 58 W55 5 7 1:02:02 56:02 9:20 F 7
92. Karen Daniels F 48 W45 37 37 1:02:03 30:33 5:05 Y 88
93. Nicole Riding F 32 45 44 1:02:03 27:03 4:30 F
94. Rhonda Kallio F 40 W40 19 19 1:02:04 44:04 7:20 F
95. Des Butler F 68 W65 30 30 1:02:05 34:05 5:40 Y 87
96. Julia McGinty F 36 W35 28 28 1:02:10 35:10 5:51 1
97. Joanne Purcell F 33 40 14 1:02:12 49:12 8:12 G
98. Carrie Daniels F 43 W40 1 24 1:02:12 39:12 6:32 F 25
99. Christine O'Brien F 47 W45 1 24 1:02:13 39:13 6:32 F 25
100. Tempe Archer F 43 W40 1 15 1:02:13 48:13 8:02 F 16
101. Vivienne Saint F 40 W40 16 16 1:02:14 47:14 7:52 F
102. Sarah Savell-Boss F 34 39 24 1:02:15 39:15 6:32 F
103. Belinda Farrelly F 35 W35 46 46 1:02:25 26:25 4:24 Y 86
104. Anna Byrne F 35 W35 23 23 1:02:28 40:28 6:44 2
105. Christine Zygadlo F 46 W45 35 35 1:02:31 32:01 5:20 F
106. Josephine Hermans F 43 W40 27 27 1:02:32 36:32 6:05 Y 85
107. Lela Giampaolo F 39 W35 34 32 1:02:33 33:33 5:35 F
108. Kerry Roberts F 36 W35 39 39 1:02:37 30:07 5:01 Y 84
109. Monique Dyson F 39 W35 39 40 1:02:37 29:37 4:56 F
110. Helen Way F 43 W40 22 22 1:02:39 41:39 6:56 F
111. Kerry Velloza F 38 W35 1 19 1:02:39 44:39 7:26 F 20
112. Alida Lombard F 29 1 19 1:02:41 44:41 7:26 F 20
113. Susannah Hiron F 36 W35 40 40 1:02:48 29:48 4:58 Y 83
114. Donna Rousch F 35 W35 22 22 1:02:50 41:50 6:58 Y 82
115. Debbie Cowell F 49 W45 45 45 1:02:50 27:20 4:33 1
116. Vera Vujic F 40 W40 33 32 1:02:50 33:50 5:38 F
117. Jacqueline Millard F 55 W55 32 32 1:02:51 33:51 5:38 Y 81
118. Caroline Campbell F 66 W65 36 36 1:02:52 31:52 5:18 Y 80
119. Fiona Johnstone F 37 W35 28 28 1:02:52 35:52 5:58 Y 79
120. Nicola Davies F 37 W35 1 28 1:02:55 35:55 5:59 G 28
121. Mary Johnstone F 63 W60 6 6 1:02:58 57:58 9:39 Y 78
122. Michelle Morgan F 39 W35 45 45 1:03:00 27:30 4:35 Y 77
123. Diann Bramwell F 62 W60 15 15 1:03:02 49:02 8:10 Y 76
124. Therese Kercher F 63 W60 22 22 1:03:12 42:12 7:02 Y 75
125. Cilla Chapman F 61 W60 17 13 1:03:24 51:24 8:34 G
126. Julia Anderson F 38 W35 36 36 1:03:26 32:26 5:24 F
127. Clare Pritchard F 44 W40 27 27 1:03:30 37:30 6:15 1
128. Joan Mallory F 77 W75 19 19 1:03:34 45:34 7:35 1
129. Linda Miles F 58 W55 25 25 1:03:35 39:35 6:35 Y 74
130. Mami Iwashita F 43 W40 34 34 1:03:36 33:36 5:36 1
131. Teresa Barker F 32 45 45 1:03:38 28:08 4:41 Y 73
132. Monica Lindemann F 43 W40 33 33 1:03:40 34:10 5:41 1
133. Elle Knight F 40 W40 45 45 1:03:43 28:13 4:42 1
134. Deborah Mackay F 44 W40 1 30 1:03:46 35:46 5:57 F 30
135. Nerelle Harrison Heard F 54 W50 22 22 1:03:48 42:48 7:08 Y 72
136. Consie Larmour F 73 W70 22 22 1:03:55 42:55 7:09 Y 71
137. Amanda Roccisano F 32 17 17 1:03:59 47:59 7:59 Y 70
138. Helen Larmour F 49 W45 47 47 1:04:05 27:35 4:35 Y 69
139. Glenis Hiron F 61 W60 22 22 1:04:09 43:09 7:11 Y 68
140. Ingrid Kinch F 27 12 12 1:04:10 53:10 8:51 F
141. Robyn Booth F 57 W55 32 32 1:04:11 35:11 5:51 Y 67
142. Meredith Graham F 44 W40 36 37 1:04:11 32:41 5:26 G
143. Sara Toscan F 35 W35 33 33 1:04:12 34:42 5:47 Y 66
144. Yumiko Clifton F 46 W45 30 30 1:04:12 36:12 6:02 1
145. Judi Edwards F 61 W60 39 39 1:04:14 31:44 5:17 Y 65
146. Celina Miller F 30 38 38 1:04:17 32:17 5:22 Y 64
147. Janet Perfrement F 59 W55 16 16 1:04:31 49:31 8:15 Y 63
148. Lianne McGilvray F 39 W35 21 21 1:04:33 44:33 7:25 Y 62
149. Sharyn Huang F 27 34 34 1:04:35 34:35 5:45 Y 61
150. Annegret Ludwig F 48 W45 25 25 1:04:41 40:41 6:46 Y 60
151. Rhonda Blackman F 64 W60 19 19 1:04:47 46:47 7:47 1
152. Sandy Stevens F 60 W60 13 13 1:04:59 52:59 8:49 Y 59
153. Ros Cooper F 53 W50 31 31 1:05:03 36:33 6:05 Y 58
154. Judy Forbes F 77 W75 21 21 1:05:04 45:04 7:30 Y 57
155. Thea Zimpel F 26 46 46 1:05:04 29:04 4:50 1
156. Sarah Williams F 35 W35 27 27 1:05:16 39:16 6:32 Y 56
157. Lyn Witheridge F 50 W50 21 21 1:05:17 45:17 7:32 Y 55
158. Bethany Chadwick F 54 W50 24 24 1:05:20 42:20 7:03 1
159. Kat Benton F 29 34 34 1:05:21 35:21 5:53 1
160. Margaret Redmond F 47 W45 19 19 1:05:22 47:22 7:53 Y 54
161. Sarah Jane McDonnell F 34 42 42 1:05:24 31:24 5:14 1
162. Fran Stevens F 41 W40 29 29 1:05:27 37:57 6:19 1
163. Kate Francis F 32 1 24 1:05:30 42:30 7:05 F 24
164. Anna Barker F 17 U18 35 35 1:05:30 35:00 5:50 1
165. Kasey Alchin F 25 13 13 1:05:47 53:47 8:57 Y 53
166. Lyn Percival F 56 W55 13 13 1:05:51 53:51 8:58 Y 52
167. Shirley Tonkin F 62 W60 22 22 1:05:54 44:54 7:29 Y 51 21
168. Gabrielle Wright F 62 W60 15 15 1:05:57 51:57 8:39 Y 50 14
169. Haylie Maddison F 30 1 44 1:06:06 31:06 5:11 F 44
170. Carolyne Kramar F 44 W40 30 30 1:06:18 38:18 6:23 Y 49
171. Janet Hoop F 1 20 1:06:18 47:18 7:53 F 20
172. Sophie Cartwright F 37 W35 1 20 1:06:24 47:24 7:54 F 20
173. Linda Richardson F 52 W50 24 24 1:06:28 43:28 7:14 Y 48 23
174. Annette Clark F 53 W50 12 12 1:06:33 55:33 9:15 1 11
175. Judy Blake F 53 W50 12 12 1:06:35 55:35 9:15 Y 47 11
176. Peta Halloran F 38 W35 27 27 1:06:37 40:37 6:46 Y 46 26
177. Wendy Edwards F 39 W35 31 31 1:06:38 38:08 6:21 Y 45 30
178. Jennifer Turini F 53 W50 1 4 1:06:38 1:03:38 10:36 F 4
179. Jenny Shannon F 53 W50 1 4 1:06:41 1:03:41 10:36 F 4
180. Robyn McClelland F 55 W55 39 39 1:07:02 34:32 5:45 Y 44 38
181. Mandy Doherty F 52 W50 38 38 1:07:36 35:36 5:56 Y 43 37
182. Marianne Eynon F 61 W60 20 20 1:08:00 49:00 8:10 2 19
183. Beryl Lowry F 62 W60 1 27 1:08:29 42:29 7:04 G 25
184. Ann Bell F 47 W45 8 1 1:09:03 1:09:03 11:30 F
185. Juanita Sheridan F 1 18 1:09:05 52:05 8:40 F 15
186. Emma Fielder F 36 W35 37 37 1:09:07 37:37 6:16 Y 42 36
187. Jenny Garnett F 51 W50 21 21 1:09:57 49:57 8:19 Y 41 20
188. Lorraine Anderson F 52 W50 13 10 1:11:57 1:02:57 10:29 G 12
189. Meera Rajendran F 10 10 1:11:58 1:02:58 10:29 Y 40 9
190. Andrea Twell F 53 W50 1 7 1:14:40 1:08:40 11:26 F
191. Maria White F 56 W55 33 33 1:19:17 49:47 8:17 Y 39 32
192. Colleen Ray F 46 W45 1 4 1:21:37 1:18:37 13:06 F
 
Theme 
Please contact the WebMaster
with questions or comments about this web site.
© 1999-2019 YMCA of Canberra Runners Club. All rights reserved.
Last Updated: 19 Oct 2019